Terminal Aerodrome Forecast
Issued by NWS

Home | Current Version | Previous Version | Text Only | Print | Product List | Glossary On
Versions: 1 2 3 4 5 6 7 8 9 10 11 12 13 14 15 16 17 18 19
000
FTUS46 KSEW 231700
TAFOLM
TAF
KOLM 231731Z 2318/2418 22009KT P6SM -SHRA BKN035 OVC060
     FM232000 22013KT P6SM VCSH SCT035 BKN060
      TEMPO 2320/2324 22013G20KT 5SM SHRA BKN035 OVC060
     FM240000 22009KT P6SM SCT035 BKN060
      TEMPO 2400/2404 -SHRA
     FM240400 VRB03KT P6SM SCT060 BKN110
     FM240900 00000KT 4SM BR FEW003 SCT060 BKN110=

USA.gov is the U.S. government's official web portal to all federal, state and local government web resources and services.